METAR Data
IDs: Format: Raw Decoded Include TAF

Data at: 1910 UTC 22 May 2019

KLBX 221453Z AUTO 16016G22KT 10SM SCT018 29/23 A2983 RMK AO2 PK WND 17031/1410 SLP101 T02890228 51012